首页
METAR-TAF:

METAR-TAF

机场 :

Goldsboro / Seymour Johnson, 北卡罗来纳州, 美国

纬度: 35-20N, 经度: 077-58W, 海拔: 33米

当前天气观测

该预报发布于13分钟前的22:56 UTC
风速5节,风向东南
温度 17°C
湿度 77%
气压 1019 hPa
能見度: 16.1公里
散云层高于3200英尺
多云层高于7000英尺

METAR: KGSB 232256Z AUTO 14005KT 10SM SCT032 BKN070 17/13 A3010 RMK AO2 SLP196 T01690128 $

时间: 18:09 (23:09 UTC)

预报

该预报发布于1小时和29分钟前的21:40 UTC
预报有效从23日的 21点(UTC)到 25日的 03点(UTC)
风速10节,风向,有时为15节阵风
能见度10公里或以上
散云层高于2500英尺
多云层高于8500英尺
阴天层高于25000英尺
成为
从 23日的 22点(UTC)到 23日的 23点(UTC)
风速12节,风向,有时为18节阵风
能见度10公里或以上
多云层高于2000英尺
阴天层高于7000英尺
成为
从 24日的 04点(UTC)到 24日的 05点(UTC)
风速12节,风向,有时为18节阵风
能見度: 8000
多云层高于1500英尺
阴天层高于4000英尺
小阵雨
成为
从 24日的 08点(UTC)到 24日的 09点(UTC)
风速15节,风向,有时为25节阵风
能見度: 4800
多云层高于1500英尺
阴天层高于3000英尺
小阵雨
短暂存在
从 24日的 13点(UTC)到 24日的 15点(UTC)
风速25节,风向南转西南,有时为35节阵风
能見度: 2400
阴天层高于1500英尺, 积雨云.
雷暴, 小雨
成为
从 24日的 17点(UTC)到 24日的 18点(UTC)
风速12节,风向西转西南,有时为20节阵风
能见度10公里或以上
散云层高于2000英尺
多云层高于5000英尺

TAF: KGSB 232140Z 2321/2503 17010G15KT 9999 SCT025 BKN085 OVC250 QNH3012INS BECMG 2322/2323 18012G18KT 9999 BKN020 OVC070 QNH2992INS BECMG 2404/2405 19012G18KT 8000 -SHRA BKN015 OVC040 QNH2974INS BECMG 2408/2409 19015G25KT 4800 -SHRA BKN015 OVC030 QNH2960INS TEMPO 2413/2415 20025G35KT 2400 -TSRA OVC015CB BECMG 2417/2418 24012G20KT 9999 NSW SCT020 BKN050 QNH2956INS TX21/2419Z TN13/2405Z

超过4000个机场的气象观测和天气预报(METAR&TAF报告)。

可查询的气象台以黄色和红色小点在地图上表示。

将鼠标移到小点上方,可查看气象台名称。

然后点击查看天气观测和预报。

如需切换地图:点击带黑十字的绿色按钮放大地图;点击带横线的绿色按钮缩小地图;或者点击绿色箭头查看邻近地区的地图。


METAR-TAF: